Time;durP1;ratioP1;P1;durP2;ratioP2;P2;SDS_P1;SDS_P2;PMS_P1;PMS_P2;Temp;Humidity;BMP_temperature;BMP_pressure;BME280_temperature;BME280_humidity;BME280_pressure;Samples;Min_cycle;Max_cycle;Signal;HPM_P1;HPM_P2
2022/04/02 00:02:11;;;;;;;2.22;1.08;;;;;;;17.20;22.55;101396.69;16142043;19;129001;-42
2022/04/02 00:07:32;;;;;;;2.97;1.20;;;;;;;17.17;22.36;101408.19;16139690;19;129423;-41
2022/04/02 00:12:55;;;;;;;1.92;1.10;;;;;;;17.16;22.56;101405.66;16135265;19;129105;-44
2022/04/02 00:18:17;;;;;;;3.38;1.30;;;;;;;17.13;22.63;101398.66;16135383;19;128981;-42
2022/04/02 00:23:39;;;;;;;2.80;1.30;;;;;;;17.08;22.34;101399.31;16139226;19;129952;-41
2022/04/02 00:29:02;;;;;;;2.20;0.90;;;;;;;17.06;22.70;101400.63;16139055;19;129595;-44
2022/04/02 00:34:24;;;;;;;1.58;1.10;;;;;;;17.03;22.67;101392.78;16137606;19;129472;-44
2022/04/02 00:39:45;;;;;;;2.92;1.25;;;;;;;17.01;22.77;101397.69;16135828;19;129415;-43
2022/04/02 00:45:07;;;;;;;3.88;1.10;;;;;;;17.00;22.65;101390.47;16135215;19;129385;-46
2022/04/02 00:50:29;;;;;;;3.15;1.10;;;;;;;16.98;22.60;101390.69;16131951;19;131034;-42
2022/04/02 00:55:51;;;;;;;3.55;1.10;;;;;;;16.96;22.63;101390.06;16133035;19;129483;-43
2022/04/02 01:01:14;;;;;;;1.58;1.13;;;;;;;16.95;22.38;101393.91;16138553;19;128986;-44
2022/04/02 01:06:37;;;;;;;1.15;0.90;;;;;;;16.91;22.91;101382.44;16137737;19;129308;-42
2022/04/02 01:11:58;;;;;;;1.25;0.80;;;;;;;16.89;22.58;101379.06;16134362;19;129503;-43
2022/04/02 01:17:22;;;;;;;1.77;1.10;;;;;;;16.87;22.68;101381.19;16132751;19;129733;-43
2022/04/02 01:22:43;;;;;;;3.05;1.08;;;;;;;16.85;23.03;101386.13;16134554;19;132357;-42
2022/04/02 01:28:06;;;;;;;2.97;1.30;;;;;;;16.84;22.46;101381.66;16126690;19;129770;-45
2022/04/02 01:33:27;;;;;;;1.52;0.80;;;;;;;16.81;22.59;101387.63;16131811;19;132393;-43
2022/04/02 01:38:50;;;;;;;2.00;1.05;;;;;;;16.77;22.65;101392.75;16139603;19;129831;-43
2022/04/02 01:44:11;;;;;;;3.35;0.93;;;;;;;16.75;22.78;101389.38;16148639;19;129615;-43
2022/04/02 01:49:33;;;;;;;1.30;1.00;;;;;;;16.73;22.70;101402.53;16144972;19;129273;-42
2022/04/02 01:54:55;;;;;;;2.70;1.05;;;;;;;16.72;22.93;101405.53;16142357;19;129625;-44
2022/04/02 02:00:17;;;;;;;2.55;0.98;;;;;;;16.70;22.84;101408.50;16148032;19;129443;-41
2022/04/02 02:05:40;;;;;;;2.95;1.20;;;;;;;16.69;22.78;101406.81;16146816;19;129187;-44
2022/04/02 02:11:02;;;;;;;2.28;1.00;;;;;;;16.68;22.56;101404.28;16146866;19;129331;-44
2022/04/02 02:16:24;;;;;;;2.28;1.00;;;;;;;16.66;22.79;101400.84;16144254;19;129527;-46
2022/04/02 02:21:45;;;;;;;2.70;0.90;;;;;;;16.64;22.55;101403.84;16146992;19;129650;-43
2022/04/02 02:27:08;;;;;;;1.73;1.10;;;;;;;16.61;22.48;101402.38;16146446;19;131257;-42
2022/04/02 02:32:36;;;;;;;2.78;1.02;;;;;;;16.58;23.06;101405.59;16140920;19;129397;-41
2022/04/02 02:38:06;;;;;;;2.20;1.02;;;;;;;16.57;22.52;101403.03;16141958;19;129487;-41
2022/04/02 02:43:28;;;;;;;3.63;1.10;;;;;;;16.53;22.80;101410.91;16147153;19;129697;-42
2022/04/02 02:48:50;;;;;;;2.47;1.30;;;;;;;16.51;22.54;101410.28;16139767;19;131197;-41
2022/04/02 02:54:11;;;;;;;1.55;0.80;;;;;;;16.49;22.77;101417.97;16148508;19;128985;-41
2022/04/02 02:59:34;;;;;;;1.98;0.82;;;;;;;16.47;22.45;101417.31;16159722;19;129311;-41
2022/04/02 03:04:56;;;;;;;3.67;1.08;;;;;;;16.46;22.71;101423.91;16147528;19;128958;-42
2022/04/02 03:10:23;;;;;;;1.40;0.80;;;;;;;16.43;22.47;101419.66;16145139;19;129645;-41
2022/04/02 03:15:45;;;;;;;1.80;0.80;;;;;;;16.42;22.97;101422.66;16139749;19;129463;-41
2022/04/02 03:21:07;;;;;;;2.30;0.98;;;;;;;16.41;22.54;101418.19;16142366;19;129018;-42
2022/04/02 03:26:29;;;;;;;3.00;0.85;;;;;;;16.38;22.63;101424.13;16143887;19;129586;-42
2022/04/02 03:31:51;;;;;;;1.50;0.90;;;;;;;16.37;22.49;101425.25;16152906;19;129396;-44
2022/04/02 03:37:13;;;;;;;2.10;1.00;;;;;;;16.35;22.67;101427.38;16164505;19;129380;-41
2022/04/02 03:42:38;;;;;;;2.55;1.02;;;;;;;16.34;22.56;101436.72;16141094;19;129677;-42
2022/04/02 03:47:59;;;;;;;2.83;1.10;;;;;;;16.30;22.83;101436.31;16135963;19;129979;-41
2022/04/02 03:53:21;;;;;;;2.65;1.08;;;;;;;16.28;22.94;101432.91;16139634;19;129201;-42
2022/04/02 03:58:43;;;;;;;1.02;0.75;;;;;;;16.24;22.58;101435.28;16132832;19;129254;-41
2022/04/02 04:04:06;;;;;;;1.50;0.90;;;;;;;16.25;22.46;101436.94;16135996;19;129126;-43
2022/04/02 04:09:28;;;;;;;3.70;1.10;;;;;;;16.34;22.66;101442.22;16140524;19;129341;-42
2022/04/02 04:14:49;;;;;;;2.42;1.13;;;;;;;16.63;22.16;101444.44;16139699;19;129183;-42
2022/04/02 04:20:11;;;;;;;1.85;0.90;;;;;;;17.28;21.98;101448.13;16140919;19;129736;-41
2022/04/02 04:25:33;;;;;;;4.13;0.90;;;;;;;18.12;21.67;101445.00;16136259;19;129374;-42
2022/04/02 04:30:55;;;;;;;1.25;0.60;;;;;;;18.90;20.95;101450.03;16139742;19;129009;-41
2022/04/02 04:36:18;;;;;;;3.55;0.77;;;;;;;19.42;20.19;101451.41;16137228;19;129512;-41
2022/04/02 04:41:41;;;;;;;2.17;0.60;;;;;;;19.62;20.34;101457.44;16136135;19;129539;-41
2022/04/02 04:47:03;;;;;;;1.67;0.75;;;;;;;19.62;20.07;101463.00;16133264;19;130145;-43
2022/04/02 04:52:25;;;;;;;2.25;0.60;;;;;;;19.50;20.09;101481.56;16137918;19;128968;-41
2022/04/02 04:57:49;;;;;;;1.60;0.80;;;;;;;19.31;20.38;101486.34;16132934;19;129129;-42
2022/04/02 05:03:12;;;;;;;1.53;0.70;;;;;;;19.08;20.61;101488.78;16135953;19;129582;-41
2022/04/02 05:08:34;;;;;;;1.33;0.70;;;;;;;18.88;20.43;101488.22;16140872;19;129840;-44
2022/04/02 05:13:56;;;;;;;1.85;0.90;;;;;;;18.69;20.83;101512.34;16152171;19;129506;-41
2022/04/02 05:19:20;;;;;;;1.55;0.73;;;;;;;18.49;20.43;101507.03;16146422;19;129775;-42
2022/04/02 05:24:42;;;;;;;1.90;0.88;;;;;;;18.30;20.87;101512.56;16149875;19;129319;-41
2022/04/02 05:30:05;;;;;;;1.40;0.75;;;;;;;18.17;21.06;101521.00;16150691;19;129479;-41
2022/04/02 05:35:27;;;;;;;3.15;0.88;;;;;;;18.19;21.05;101530.78;16150244;19;130231;-41
2022/04/02 05:40:51;;;;;;;1.48;0.80;;;;;;;18.50;20.56;101542.00;16149138;19;129533;-43
2022/04/02 05:46:13;;;;;;;1.63;0.70;;;;;;;18.98;20.59;101549.50;16146189;19;130401;-42
2022/04/02 05:51:35;;;;;;;2.03;0.90;;;;;;;19.45;20.21;101559.97;16150253;19;130418;-42
2022/04/02 05:56:57;;;;;;;3.40;0.80;;;;;;;19.69;20.08;101569.19;16146346;19;129670;-42
2022/04/02 06:02:19;;;;;;;3.28;0.80;;;;;;;19.75;19.53;101575.75;16143063;19;129474;-42
2022/04/02 06:07:41;;;;;;;1.23;0.75;;;;;;;19.66;19.53;101572.47;16147636;19;129383;-42
2022/04/02 06:13:03;;;;;;;1.17;0.88;;;;;;;19.49;19.72;101577.00;16148589;19;129604;-42
2022/04/02 06:18:24;;;;;;;2.88;1.00;;;;;;;19.33;19.77;101589.63;16143546;19;131054;-41
2022/04/02 06:23:46;;;;;;;2.22;0.93;;;;;;;19.14;20.00;101589.59;16147501;19;129697;-42
2022/04/02 06:29:08;;;;;;;2.90;1.17;;;;;;;19.02;20.25;101597.88;16165295;19;128885;-43
2022/04/02 06:34:30;;;;;;;2.40;0.80;;;;;;;18.92;20.54;101606.72;16169456;19;129900;-43
2022/04/02 06:39:52;;;;;;;1.90;1.05;;;;;;;18.84;20.72;101608.97;16186281;19;129125;-42
2022/04/02 06:45:14;;;;;;;2.92;0.80;;;;;;;18.75;21.06;101612.06;16189867;19;128648;-43
2022/04/02 06:50:36;;;;;;;3.17;1.08;;;;;;;18.71;21.75;101632.16;16194265;19;129911;-42
2022/04/02 06:55:58;;;;;;;4.03;0.93;;;;;;;18.75;22.01;101639.78;16181609;19;129807;-44
2022/04/02 07:01:20;;;;;;;2.35;1.10;;;;;;;18.89;21.70;101645.16;16187374;19;129310;-46
2022/04/02 07:06:45;;;;;;;6.38;1.00;;;;;;;19.08;21.62;101649.63;16183615;19;129007;-42
2022/04/02 07:12:07;;;;;;;3.60;1.10;;;;;;;19.31;22.02;101648.13;16182861;19;130394;-43
2022/04/02 07:17:29;;;;;;;6.30;1.13;;;;;;;19.53;21.78;101656.75;16155739;19;129698;-45
2022/04/02 07:22:51;;;;;;;2.28;1.25;;;;;;;19.74;21.45;101662.03;16143120;19;129548;-42
2022/04/02 07:28:14;;;;;;;4.03;0.90;;;;;;;19.86;21.14;101676.81;16140806;19;129417;-44
2022/04/02 07:33:36;;;;;;;2.35;0.98;;;;;;;19.93;21.08;101674.78;16139949;19;129706;-43
2022/04/02 07:39:13;;;;;;;4.63;1.00;;;;;;;19.97;21.37;101678.78;16137970;19;128869;-43
2022/04/02 07:44:49;;;;;;;3.25;1.38;;;;;;;19.99;21.05;101681.34;16141262;19;132480;-43
2022/04/02 07:50:16;;;;;;;1.60;0.90;;;;;;;19.96;20.78;101693.75;16142277;19;129466;-43
2022/04/02 07:55:41;;;;;;;3.08;0.80;;;;;;;19.91;20.89;101688.06;16140052;19;130206;-45
2022/04/02 08:01:05;;;;;;;1.90;0.88;;;;;;;19.86;21.15;101696.25;16139946;19;129024;-44
2022/04/02 08:06:31;;;;;;;1.85;0.80;;;;;;;19.81;21.02;101699.72;16140455;19;129680;-42
2022/04/02 08:11:52;;;;;;;;;;;;;;;19.74;20.80;101698.13;16133433;19;128873;-43
2022/04/02 08:17:14;;;;;;;1.65;0.80;;;;;;;19.76;20.74;101707.06;16137888;19;129380;-44
2022/04/02 08:22:36;;;;;;;4.03;1.08;;;;;;;19.72;20.69;101708.63;16139280;19;129599;-47
2022/04/02 08:28:17;;;;;;;2.33;1.10;;;;;;;19.66;20.89;101702.94;16137425;19;129444;-44
2022/04/02 08:33:56;;;;;;;3.30;0.80;;;;;;;19.52;20.79;101718.06;16139400;19;128928;-43
2022/04/02 08:39:34;;;;;;;2.35;0.90;;;;;;;19.44;20.81;101723.94;16133969;19;130354;-43
2022/04/02 08:45:11;;;;;;;1.73;0.70;;;;;;;19.41;20.71;101732.72;16136537;19;130542;-43
2022/04/02 08:50:44;;;;;;;1.80;0.80;;;;;;;19.37;20.87;101727.63;16137979;19;129551;-43
2022/04/02 08:56:09;;;;;;;2.15;0.98;;;;;;;19.33;20.76;101740.25;16136326;19;129291;-43
2022/04/02 09:01:56;;;;;;;1.10;0.80;;;;;;;19.32;20.87;101751.59;16136633;19;129519;-47
2022/04/02 09:07:37;;;;;;;;;;;;;;;19.30;20.91;101756.53;16134169;19;131807;-46
2022/04/02 09:13:25;;;;;;;1.75;0.85;;;;;;;19.40;20.91;101756.84;16137932;19;128920;-42
2022/04/02 09:19:20;;;;;;;3.05;0.93;;;;;;;19.45;21.20;101753.38;16132782;19;129893;-46
2022/04/02 09:25:00;;;;;;;3.60;1.00;;;;;;;19.47;20.96;101762.31;16136118;19;129243;-43
2022/04/02 09:30:25;;;;;;;1.55;0.80;;;;;;;19.51;20.62;101771.88;16134848;19;129939;-44
2022/04/02 09:36:09;;;;;;;2.03;1.00;;;;;;;19.53;20.92;101775.28;16135991;19;129768;-45
2022/04/02 09:41:48;;;;;;;2.20;0.80;;;;;;;19.58;20.54;101783.72;16126853;19;130165;-44
2022/04/02 09:47:22;;;;;;;2.15;1.00;;;;;;;19.60;20.99;101784.34;16120377;19;130514;-45
2022/04/02 09:52:50;;;;;;;1.65;0.80;;;;;;;19.57;20.70;101784.81;16122834;19;130657;-42
2022/04/02 09:58:39;;;;;;;2.42;0.70;;;;;;;19.53;20.97;101778.88;16134973;19;130707;-43
2022/04/02 10:04:10;;;;;;;1.90;0.82;;;;;;;19.47;21.07;101788.16;16134907;19;129777;-48
2022/04/02 10:09:35;;;;;;;1.40;0.75;;;;;;;19.39;21.22;101794.00;16138905;19;130114;-45
2022/04/02 10:14:59;;;;;;;2.47;0.90;;;;;;;19.35;21.35;101792.78;16139372;19;130291;-44
2022/04/02 10:20:28;;;;;;;3.17;1.07;;;;;;;19.32;21.25;101785.72;16142075;19;129670;-43
2022/04/02 10:26:13;;;;;;;2.17;0.90;;;;;;;19.20;21.26;101782.84;16146331;19;130326;-42
2022/04/02 10:31:37;;;;;;;2.22;0.80;;;;;;;19.14;21.76;101778.22;16145089;19;130398;-46
2022/04/02 10:37:08;;;;;;;4.20;1.17;;;;;;;19.13;21.43;101786.78;16146216;19;129256;-44
2022/04/02 10:42:34;;;;;;;4.00;1.10;;;;;;;19.10;21.57;101773.34;16147833;19;129521;-45
2022/04/02 10:48:09;;;;;;;3.88;0.90;;;;;;;19.07;21.92;101770.00;16139747;19;129165;-43
2022/04/02 10:53:40;;;;;;;2.30;1.10;;;;;;;19.07;21.73;101764.44;16139375;19;129224;-44
2022/04/02 10:59:02;;;;;;;1.65;0.85;;;;;;;19.06;22.16;101757.19;16142634;19;129353;-45
2022/04/02 11:04:31;;;;;;;1.60;0.80;;;;;;;19.02;22.26;101775.34;16140727;19;129096;-47
2022/04/02 11:09:53;;;;;;;2.78;0.90;;;;;;;18.97;22.22;101769.63;16143695;19;129767;-44
2022/04/02 11:15:23;;;;;;;1.83;0.80;;;;;;;18.98;22.30;101760.25;16143393;19;129942;-43
2022/04/02 11:20:48;;;;;;;4.00;0.70;;;;;;;18.97;22.16;101758.53;16139196;19;129461;-44
2022/04/02 11:26:14;;;;;;;4.00;1.00;;;;;;;18.95;22.23;101757.94;16143017;19;129822;-47
2022/04/02 11:31:45;;;;;;;3.10;1.17;;;;;;;18.85;21.87;101765.91;16141876;19;129065;-48
2022/04/02 11:37:12;;;;;;;2.37;1.00;;;;;;;18.75;21.74;101775.59;16141304;19;129163;-44
2022/04/02 11:42:34;;;;;;;2.83;1.10;;;;;;;18.75;21.44;101781.16;16142184;19;129415;-43
2022/04/02 11:48:11;;;;;;;6.38;0.95;;;;;;;18.88;21.65;101771.88;16135577;19;129423;-43
2022/04/02 11:53:37;;;;;;;3.20;0.90;;;;;;;19.03;21.38;101779.84;16134620;19;129096;-43
2022/04/02 11:59:09;;;;;;;5.65;0.98;;;;;;;19.14;21.19;101780.97;16134192;19;130100;-45
2022/04/02 12:04:32;;;;;;;1.73;0.80;;;;;;;19.19;20.57;101788.66;16140314;19;130533;-45
2022/04/02 12:09:55;;;;;;;1.65;0.77;;;;;;;19.24;20.49;101794.38;16138690;19;130203;-50
2022/04/02 12:15:17;;;;;;;2.33;0.90;;;;;;;19.25;20.28;101789.69;16139220;19;129310;-48
2022/04/02 12:20:40;;;;;;;2.20;0.90;;;;;;;19.25;20.35;101793.28;16133878;19;128965;-46
2022/04/02 12:26:03;;;;;;;6.72;0.70;;;;;;;19.25;20.69;101786.91;16135069;19;130173;-43
2022/04/02 12:31:30;;;;;;;5.38;0.82;;;;;;;19.25;20.27;101784.97;16133107;19;129568;-43
2022/04/02 12:37:02;;;;;;;2.40;1.08;;;;;;;19.22;20.44;101804.84;16138737;19;129580;-44
2022/04/02 12:42:39;;;;;;;4.15;1.02;;;;;;;19.19;20.44;101796.97;16136568;19;129038;-49
2022/04/02 12:48:03;;;;;;;4.22;1.00;;;;;;;19.20;20.56;101802.28;16130035;19;129873;-46
2022/04/02 12:53:35;;;;;;;4.38;0.77;;;;;;;19.35;21.03;101798.31;16127748;19;130524;-44
2022/04/02 12:58:58;;;;;;;2.58;0.90;;;;;;;19.64;21.29;101801.38;16134768;19;130361;-48
2022/04/02 13:04:25;;;;;;;1.75;0.88;;;;;;;19.89;20.54;101795.75;16134354;19;129867;-44
2022/04/02 13:09:50;;;;;;;3.08;0.82;;;;;;;19.95;21.06;101786.47;16133154;19;129858;-46
2022/04/02 13:15:12;;;;;;;1.67;0.83;;;;;;;19.93;21.15;101794.22;16135513;19;129785;-44
2022/04/02 13:20:37;;;;;;;1.30;0.70;;;;;;;19.88;20.79;101804.31;16131918;19;129506;-42
2022/04/02 13:26:05;;;;;;;;;;;;;;;19.75;21.40;101799.78;16135114;19;129125;-43
2022/04/02 13:31:34;;;;;;;1.88;0.80;;;;;;;19.65;21.36;101803.09;16142453;19;129686;-48
2022/04/02 13:37:23;;;;;;;1.85;0.80;;;;;;;19.53;21.59;101795.53;16149543;19;130289;-44
2022/04/02 13:42:57;;;;;;;1.27;0.70;;;;;;;19.53;21.45;101798.31;16148520;19;129573;-43
2022/04/02 13:48:21;;;;;;;2.28;0.73;;;;;;;19.59;21.51;101788.22;16142214;19;129303;-46
2022/04/02 13:53:43;;;;;;;0.80;0.70;;;;;;;19.79;21.25;101792.69;16148741;19;129971;-45
2022/04/02 13:59:07;;;;;;;0.95;0.60;;;;;;;20.12;20.97;101791.41;16144527;19;129424;-47
2022/04/02 14:04:37;;;;;;;1.67;0.70;;;;;;;20.45;20.74;101785.38;16147806;19;129441;-44
2022/04/02 14:10:12;;;;;;;3.80;0.77;;;;;;;20.72;20.77;101771.03;16147937;19;129698;-47
2022/04/02 14:15:39;;;;;;;3.93;0.80;;;;;;;20.93;20.53;101781.81;16146917;19;129046;-45
2022/04/02 14:21:06;;;;;;;1.40;0.80;;;;;;;21.13;20.45;101778.66;16141513;19;129368;-43
2022/04/02 14:27:10;;;;;;;1.63;0.70;;;;;;;21.24;19.79;101796.47;16145770;19;129305;-48
2022/04/02 14:32:43;;;;;;;1.65;0.77;;;;;;;21.36;19.68;101794.50;16142150;19;129371;-43
2022/04/02 14:38:49;;;;;;;2.40;0.68;;;;;;;21.44;19.51;101796.91;16142955;19;130316;-49
2022/04/02 14:44:32;;;;;;;1.85;0.80;;;;;;;21.55;19.48;101808.31;16131196;19;129729;-48
2022/04/02 14:50:52;;;;;;;0.70;0.50;;;;;;;21.60;19.19;101808.44;16125307;19;129480;-43
2022/04/02 14:56:32;;;;;;;2.25;0.70;;;;;;;21.64;19.36;101809.63;16125441;19;129608;-43
2022/04/02 15:02:22;;;;;;;2.20;0.75;;;;;;;21.64;19.29;101815.22;16119182;19;129383;-44
2022/04/02 15:08:08;;;;;;;4.07;0.70;;;;;;;21.57;19.75;101803.34;16128451;19;129433;-45
2022/04/02 15:13:32;;;;;;;1.43;0.77;;;;;;;21.47;19.77;101802.00;16134809;19;129899;-47
2022/04/02 15:19:20;;;;;;;2.40;0.60;;;;;;;21.36;19.94;101808.44;16126707;19;130036;-45
2022/04/02 15:24:42;;;;;;;3.00;0.80;;;;;;;21.25;20.04;101798.16;16135812;19;129889;-47
2022/04/02 15:30:04;;;;;;;1.92;0.70;;;;;;;21.15;19.77;101807.09;16142934;19;129799;-47
2022/04/02 15:35:44;;;;;;;1.85;0.68;;;;;;;21.06;20.13;101815.81;16141201;19;129507;-47
2022/04/02 15:41:49;;;;;;;2.23;0.67;;;;;;;20.93;19.69;101823.53;16133928;19;131267;-44
2022/04/02 15:48:14;;;;;;;1.93;0.70;;;;;;;20.81;19.67;101843.84;16127750;19;129903;-44
2022/04/02 15:53:36;;;;;;;1.27;0.80;;;;;;;20.73;19.82;101852.50;16132214;19;129185;-44
2022/04/02 15:59:09;;;;;;;1.30;0.77;;;;;;;20.66;20.30;101840.66;16132547;19;129779;-43
2022/04/02 16:04:31;;;;;;;3.35;0.80;;;;;;;20.59;20.26;101849.09;16134108;19;130417;-44
2022/04/02 16:10:16;;;;;;;1.48;0.75;;;;;;;20.53;20.06;101848.13;16136653;19;129830;-46
2022/04/02 16:15:39;;;;;;;2.30;0.70;;;;;;;20.45;20.39;101862.31;16134722;19;130296;-44
2022/04/02 16:21:04;;;;;;;3.30;0.70;;;;;;;20.35;20.70;101860.13;16133345;19;128910;-44
2022/04/02 16:26:26;;;;;;;1.17;0.90;;;;;;;20.22;20.51;101861.16;16136906;19;130513;-50
2022/04/02 16:31:51;;;;;;;2.42;0.90;;;;;;;20.11;20.55;101873.91;16137045;19;129471;-43
2022/04/02 16:37:16;;;;;;;1.70;0.93;;;;;;;19.98;20.23;101876.81;16130041;19;129998;-42
2022/04/02 16:42:38;;;;;;;3.03;0.70;;;;;;;19.82;20.64;101881.06;16129906;19;130465;-45
2022/04/02 16:47:59;;;;;;;1.25;0.70;;;;;;;19.71;20.38;101879.91;16130486;19;130134;-42
2022/04/02 16:53:24;;;;;;;1.02;0.70;;;;;;;19.57;20.14;101884.75;16134639;19;129297;-43
2022/04/02 16:58:56;;;;;;;1.57;0.67;;;;;;;19.48;20.56;101891.66;16131769;19;129572;-44
2022/04/02 17:04:20;;;;;;;4.40;0.77;;;;;;;19.38;20.85;101901.38;16141536;19;129064;-42
2022/04/02 17:09:42;;;;;;;1.92;0.70;;;;;;;19.30;20.91;101907.22;16152681;19;130933;-43
2022/04/02 17:15:06;;;;;;;1.30;0.70;;;;;;;19.22;20.89;101911.13;16150136;19;128984;-41
2022/04/02 17:20:29;;;;;;;3.00;0.88;;;;;;;19.13;20.93;101917.13;16148185;19;130094;-44
2022/04/02 17:25:51;;;;;;;4.72;0.90;;;;;;;19.05;21.42;101926.56;16149494;19;129544;-44
2022/04/02 17:31:27;;;;;;;1.60;0.80;;;;;;;18.98;21.14;101932.16;16148534;19;130268;-41
2022/04/02 17:37:09;;;;;;;3.83;0.80;;;;;;;19.05;21.47;101944.09;16147769;19;129162;-43
2022/04/02 17:42:37;;;;;;;1.27;0.80;;;;;;;19.38;21.40;101936.59;16140547;19;129851;-44
2022/04/02 17:48:08;;;;;;;2.83;0.68;;;;;;;19.95;21.94;101943.94;16142612;19;129498;-41
2022/04/02 17:53:37;;;;;;;3.63;0.80;;;;;;;20.54;21.78;101944.31;16146923;19;129291;-42
2022/04/02 17:59:07;;;;;;;2.60;0.80;;;;;;;21.03;21.40;101957.34;16138886;19;129533;-42
2022/04/02 18:04:29;;;;;;;3.25;0.90;;;;;;;21.41;22.08;101971.94;16144670;19;129532;-44
2022/04/02 18:09:51;;;;;;;8.18;1.00;;;;;;;21.58;21.63;101981.31;16144684;19;130076;-41
2022/04/02 18:15:12;;;;;;;10.90;0.98;;;;;;;21.54;21.41;101979.25;16145480;19;129867;-40
2022/04/02 18:20:34;;;;;;;4.35;0.90;;;;;;;21.45;21.94;101992.66;16140480;19;129370;-43
2022/04/02 18:25:57;;;;;;;4.57;0.70;;;;;;;21.29;22.11;101988.63;16143950;19;130201;-43
2022/04/02 18:31:19;;;;;;;5.72;0.90;;;;;;;21.11;21.97;102006.25;16138269;19;129578;-41
2022/04/02 18:36:41;;;;;;;5.78;1.00;;;;;;;20.89;21.93;102001.19;16139421;19;129642;-47
2022/04/02 18:42:04;;;;;;;6.25;0.80;;;;;;;20.71;22.35;102014.03;16138268;19;128987;-45
2022/04/02 18:47:26;;;;;;;3.97;1.00;;;;;;;20.60;22.31;102015.66;16137746;19;130199;-40
2022/04/02 18:52:48;;;;;;;6.93;0.80;;;;;;;20.63;22.78;102024.63;16140535;19;129125;-39
2022/04/02 18:58:10;;;;;;;2.88;0.70;;;;;;;20.87;23.94;102033.94;16135885;19;130424;-40
2022/04/02 19:03:32;;;;;;;4.00;1.30;;;;;;;21.19;24.79;102042.06;16139823;19;130204;-44
2022/04/02 19:08:54;;;;;;;2.67;0.80;;;;;;;21.52;25.29;102049.94;16142107;19;129221;-42
2022/04/02 19:14:16;;;;;;;3.30;0.73;;;;;;;21.83;25.66;102059.06;16140591;19;129615;-44
2022/04/02 19:19:38;;;;;;;3.13;0.60;;;;;;;22.03;25.98;102049.50;16138342;19;129469;-43
2022/04/02 19:25:00;;;;;;;2.75;0.70;;;;;;;22.25;26.11;102062.88;16137054;19;129088;-41
2022/04/02 19:30:22;;;;;;;2.38;0.70;;;;;;;22.42;26.84;102074.94;16137860;19;129436;-41
2022/04/02 19:35:43;;;;;;;2.60;0.57;;;;;;;22.56;27.01;102069.13;16139065;19;130379;-40
2022/04/02 19:41:05;;;;;;;5.43;0.82;;;;;;;22.68;27.02;102074.69;16135407;19;129322;-43
2022/04/02 19:46:28;;;;;;;1.40;0.60;;;;;;;22.79;27.27;102079.38;16135376;19;130785;-44
2022/04/02 19:51:50;;;;;;;3.85;0.80;;;;;;;22.87;27.96;102087.34;16139665;19;129496;-38
2022/04/02 19:57:12;;;;;;;2.70;0.50;;;;;;;22.99;28.44;102089.28;16137294;19;129559;-41
2022/04/02 20:02:34;;;;;;;5.75;0.70;;;;;;;23.07;28.08;102094.50;16132419;19;130099;-40
2022/04/02 20:07:56;;;;;;;3.45;0.60;;;;;;;22.96;28.06;102096.22;16133167;19;129689;-45
2022/04/02 20:13:17;;;;;;;2.05;0.70;;;;;;;22.82;28.04;102100.34;16141053;19;129832;-43
2022/04/02 20:18:39;;;;;;;5.28;0.80;;;;;;;22.61;28.34;102104.63;16135077;19;130655;-42
2022/04/02 20:24:01;;;;;;;5.72;1.10;;;;;;;22.36;28.56;102114.13;16139147;19;128954;-44
2022/04/02 20:29:25;;;;;;;3.95;0.93;;;;;;;22.11;28.83;102106.81;16136446;19;130894;-45
2022/04/02 20:34:46;;;;;;;1.45;0.90;;;;;;;21.89;28.61;102117.72;16133642;19;129329;-43
2022/04/02 20:40:10;;;;;;;1.52;0.90;;;;;;;21.65;29.01;102132.41;16133828;19;129509;-42
2022/04/02 20:45:33;;;;;;;4.30;0.80;;;;;;;21.43;28.54;102128.44;16132903;19;130172;-42
2022/04/02 20:50:56;;;;;;;2.65;0.77;;;;;;;21.21;29.07;102132.59;16136929;19;130080;-41
2022/04/02 20:56:20;;;;;;;1.80;0.93;;;;;;;21.00;29.30;102135.88;16133827;19;128882;-41
2022/04/02 21:01:41;;;;;;;2.97;0.80;;;;;;;20.80;28.32;102120.25;16133035;19;130505;-42
2022/04/02 21:07:03;;;;;;;1.65;0.80;;;;;;;20.68;28.59;102133.19;16134582;19;130647;-41
2022/04/02 21:12:25;;;;;;;2.25;0.77;;;;;;;20.55;28.54;102134.19;16133341;19;130651;-43
2022/04/02 21:17:48;;;;;;;1.55;0.90;;;;;;;20.41;28.44;102142.69;16126409;19;130307;-40
2022/04/02 21:23:10;;;;;;;1.60;0.70;;;;;;;20.28;28.69;102145.56;16127389;19;129867;-41
2022/04/02 21:28:31;;;;;;;1.38;0.80;;;;;;;20.16;28.70;102159.38;16126211;19;130660;-41
2022/04/02 21:33:53;;;;;;;1.17;0.63;;;;;;;20.04;28.42;102155.63;16127708;19;129431;-42
2022/04/02 21:39:15;;;;;;;2.25;0.90;;;;;;;19.93;28.37;102160.81;16128241;19;129906;-41
2022/04/02 21:44:37;;;;;;;2.47;1.10;;;;;;;19.81;27.98;102166.22;16125221;19;130506;-46
2022/04/02 21:49:58;;;;;;;1.52;0.80;;;;;;;19.72;28.23;102163.94;16131347;19;129826;-43
2022/04/02 21:55:21;;;;;;;3.92;1.08;;;;;;;19.59;27.66;102174.03;16142626;19;129456;-42
2022/04/02 22:00:46;;;;;;;1.92;0.93;;;;;;;19.48;27.93;102180.31;16142737;19;129210;-43
2022/04/02 22:06:08;;;;;;;2.40;1.00;;;;;;;19.38;27.93;102176.09;16143989;19;129585;-40
2022/04/02 22:11:29;;;;;;;1.27;0.80;;;;;;;19.32;28.12;102176.13;16141403;19;128936;-44
2022/04/02 22:16:51;;;;;;;2.00;0.80;;;;;;;19.24;27.87;102180.00;16139974;19;130486;-42
2022/04/02 22:22:13;;;;;;;1.60;0.73;;;;;;;19.20;27.93;102190.66;16138310;19;132410;-42
2022/04/02 22:27:35;;;;;;;0.80;0.63;;;;;;;19.15;27.90;102192.38;16142149;19;130340;-41
2022/04/02 22:32:57;;;;;;;3.05;0.88;;;;;;;19.08;27.97;102201.56;16137950;19;130722;-41
2022/04/02 22:38:19;;;;;;;1.67;0.73;;;;;;;19.05;27.93;102203.94;16139626;19;129906;-41
2022/04/02 22:43:42;;;;;;;0.77;0.50;;;;;;;18.97;27.95;102202.25;16135339;19;129970;-40
2022/04/02 22:49:04;;;;;;;0.85;0.60;;;;;;;18.92;27.59;102215.91;16140327;19;129486;-41
2022/04/02 22:54:26;;;;;;;1.25;0.60;;;;;;;18.87;27.57;102224.03;16141067;19;129223;-41
2022/04/02 22:59:47;;;;;;;1.33;0.52;;;;;;;18.84;27.74;102227.22;16139514;19;129488;-41
2022/04/02 23:05:09;;;;;;;0.70;0.57;;;;;;;18.79;27.60;102229.81;16139501;19;130159;-41
2022/04/02 23:10:31;;;;;;;2.63;0.65;;;;;;;18.72;27.35;102230.66;16137204;19;129419;-43
2022/04/02 23:15:53;;;;;;;0.70;0.60;;;;;;;18.67;27.63;102237.91;16138583;19;129515;-42
2022/04/02 23:21:17;;;;;;;0.98;0.50;;;;;;;18.61;27.76;102226.63;16135169;19;129756;-41
2022/04/02 23:26:39;;;;;;;1.17;0.73;;;;;;;18.57;27.71;102228.13;16137608;19;129823;-43
2022/04/02 23:32:00;;;;;;;1.13;0.55;;;;;;;18.54;27.85;102230.47;16132868;19;129406;-41
2022/04/02 23:37:22;;;;;;;0.80;0.70;;;;;;;18.49;27.49;102228.34;16136681;19;130365;-41
2022/04/02 23:42:44;;;;;;;0.68;0.40;;;;;;;18.45;27.92;102227.94;16132239;19;129422;-41
2022/04/02 23:48:06;;;;;;;0.50;0.50;;;;;;;18.43;27.72;102224.50;16132981;19;130469;-41
2022/04/02 23:53:28;;;;;;;1.75;0.70;;;;;;;18.38;27.91;102232.56;16138253;19;129355;-41
2022/04/02 23:58:50;;;;;;;0.77;0.50;;;;;;;18.35;27.65;102232.97;16138475;19;130016;-41
